sensor_id;sensor_type;location;lat;lon;timestamp;pressure;altitude;pressure_sealevel;temperature;humidity
29839;BME280;18669;53.356;-1.464;2023-05-11T00:00:10;100304.94;;;12.48;100.00
29839;BME280;18669;53.356;-1.464;2023-05-11T00:02:55;100298.81;;;12.47;100.00
29839;BME280;18669;53.356;-1.464;2023-05-11T00:05:39;100291.09;;;12.41;100.00
29839;BME280;18669;53.356;-1.464;2023-05-11T00:08:26;100295.50;;;12.41;100.00
29839;BME280;18669;53.356;-1.464;2023-05-11T00:11:10;100292.19;;;12.35;100.00
29839;BME280;18669;53.356;-1.464;2023-05-11T00:13:55;100295.84;;;12.31;100.00
29839;BME280;18669;53.356;-1.464;2023-05-11T00:16:40;100294.16;;;12.29;100.00
29839;BME280;18669;53.356;-1.464;2023-05-11T00:19:25;100305.66;;;12.26;100.00
29839;BME280;18669;53.356;-1.464;2023-05-11T00:22:11;100301.31;;;12.25;100.00
29839;BME280;18669;53.356;-1.464;2023-05-11T00:24:56;100297.25;;;12.15;100.00
29839;BME280;18669;53.356;-1.464;2023-05-11T00:27:40;100297.31;;;12.13;100.00
29839;BME280;18669;53.356;-1.464;2023-05-11T00:30:29;100283.50;;;12.05;100.00
29839;BME280;18669;53.356;-1.464;2023-05-11T00:33:14;100300.88;;;12.11;100.00
29839;BME280;18669;53.356;-1.464;2023-05-11T00:35:59;100296.72;;;12.03;100.00
29839;BME280;18669;53.356;-1.464;2023-05-11T00:38:44;100296.72;;;12.03;100.00
29839;BME280;18669;53.356;-1.464;2023-05-11T00:41:28;100299.41;;;12.02;100.00
29839;BME280;18669;53.356;-1.464;2023-05-11T00:44:13;100298.66;;;11.97;100.00
29839;BME280;18669;53.356;-1.464;2023-05-11T00:46:59;100300.53;;;11.93;100.00
29839;BME280;18669;53.356;-1.464;2023-05-11T00:49:44;100307.25;;;12.03;100.00
29839;BME280;18669;53.356;-1.464;2023-05-11T00:52:29;100296.13;;;11.93;100.00
29839;BME280;18669;53.356;-1.464;2023-05-11T00:55:15;100293.22;;;12.03;100.00
29839;BME280;18669;53.356;-1.464;2023-05-11T00:58:02;100304.59;;;12.05;100.00
29839;BME280;18669;53.356;-1.464;2023-05-11T01:00:49;100305.44;;;12.05;100.00
29839;BME280;18669;53.356;-1.464;2023-05-11T01:03:34;100305.41;;;12.07;100.00
29839;BME280;18669;53.356;-1.464;2023-05-11T01:06:28;100310.13;;;12.24;100.00
29839;BME280;18669;53.356;-1.464;2023-05-11T01:09:34;100312.78;;;12.24;100.00
29839;BME280;18669;53.356;-1.464;2023-05-11T01:12:29;100319.78;;;12.25;100.00
29839;BME280;18669;53.356;-1.464;2023-05-11T01:15:42;100305.78;;;12.23;100.00
29839;BME280;18669;53.356;-1.464;2023-05-11T01:18:45;100318.66;;;12.32;100.00
29839;BME280;18669;53.356;-1.464;2023-05-11T01:21:34;100315.59;;;12.18;100.00
29839;BME280;18669;53.356;-1.464;2023-05-11T01:24:35;100318.75;;;12.29;100.00
29839;BME280;18669;53.356;-1.464;2023-05-11T01:27:39;100323.88;;;12.34;100.00
29839;BME280;18669;53.356;-1.464;2023-05-11T01:33:30;100316.88;;;12.33;100.00
29839;BME280;18669;53.356;-1.464;2023-05-11T01:36:18;100322.06;;;12.36;100.00
29839;BME280;18669;53.356;-1.464;2023-05-11T01:39:07;100322.00;;;12.37;100.00
29839;BME280;18669;53.356;-1.464;2023-05-11T01:41:54;100322.06;;;12.36;100.00
29839;BME280;18669;53.356;-1.464;2023-05-11T01:44:42;100328.06;;;12.39;100.00
29839;BME280;18669;53.356;-1.464;2023-05-11T01:47:29;100327.25;;;12.37;100.00
29839;BME280;18669;53.356;-1.464;2023-05-11T01:50:17;100321.84;;;12.42;100.00
29839;BME280;18669;53.356;-1.464;2023-05-11T01:53:02;100330.97;;;12.32;100.00
29839;BME280;18669;53.356;-1.464;2023-05-11T01:55:49;100330.03;;;12.34;100.00
29839;BME280;18669;53.356;-1.464;2023-05-11T01:58:36;100334.25;;;12.38;100.00
29839;BME280;18669;53.356;-1.464;2023-05-11T02:01:23;100322.34;;;12.27;100.00
29839;BME280;18669;53.356;-1.464;2023-05-11T02:04:09;100336.16;;;12.35;100.00
29839;BME280;18669;53.356;-1.464;2023-05-11T02:06:55;100338.84;;;12.33;100.00
29839;BME280;18669;53.356;-1.464;2023-05-11T02:09:42;100337.13;;;12.32;100.00
29839;BME280;18669;53.356;-1.464;2023-05-11T02:12:28;100334.50;;;12.32;100.00
29839;BME280;18669;53.356;-1.464;2023-05-11T02:15:15;100340.50;;;12.36;100.00
29839;BME280;18669;53.356;-1.464;2023-05-11T02:18:02;100346.53;;;12.39;100.00
29839;BME280;18669;53.356;-1.464;2023-05-11T02:20:48;100349.41;;;12.33;100.00
29839;BME280;18669;53.356;-1.464;2023-05-11T02:23:35;100346.63;;;12.36;100.00
29839;BME280;18669;53.356;-1.464;2023-05-11T02:26:20;100348.44;;;12.36;100.00
29839;BME280;18669;53.356;-1.464;2023-05-11T02:29:06;100334.69;;;12.26;100.00
29839;BME280;18669;53.356;-1.464;2023-05-11T02:31:55;100356.81;;;12.49;100.00
29839;BME280;18669;53.356;-1.464;2023-05-11T02:34:43;100348.16;;;12.44;100.00
29839;BME280;18669;53.356;-1.464;2023-05-11T02:37:29;100357.06;;;12.41;100.00
29839;BME280;18669;53.356;-1.464;2023-05-11T02:40:18;100354.34;;;12.43;100.00
29839;BME280;18669;53.356;-1.464;2023-05-11T02:43:09;100356.16;;;12.42;100.00
29839;BME280;18669;53.356;-1.464;2023-05-11T02:45:59;100366.69;;;12.42;100.00
29839;BME280;18669;53.356;-1.464;2023-05-11T02:48:49;100357.09;;;12.39;100.00
29839;BME280;18669;53.356;-1.464;2023-05-11T02:51:37;100360.78;;;12.35;100.00
29839;BME280;18669;53.356;-1.464;2023-05-11T02:54:23;100367.88;;;12.33;100.00
29839;BME280;18669;53.356;-1.464;2023-05-11T02:57:09;100367.16;;;12.28;100.00
29839;BME280;18669;53.356;-1.464;2023-05-11T02:59:54;100367.16;;;12.28;100.00
29839;BME280;18669;53.356;-1.464;2023-05-11T03:02:39;100367.19;;;12.27;100.00
29839;BME280;18669;53.356;-1.464;2023-05-11T03:05:24;100365.53;;;12.24;100.00
29839;BME280;18669;53.356;-1.464;2023-05-11T03:08:09;100369.88;;;12.25;100.00
29839;BME280;18669;53.356;-1.464;2023-05-11T03:10:54;100367.06;;;12.31;100.00
29839;BME280;18669;53.356;-1.464;2023-05-11T03:13:42;100367.16;;;12.28;100.00
29839;BME280;18669;53.356;-1.464;2023-05-11T03:16:28;100361.91;;;12.27;100.00
29839;BME280;18669;53.356;-1.464;2023-05-11T03:19:13;100369.06;;;12.23;100.00
29839;BME280;18669;53.356;-1.464;2023-05-11T03:21:59;100367.19;;;12.27;100.00
29839;BME280;18669;53.356;-1.464;2023-05-11T03:24:44;100360.50;;;12.16;100.00
29839;BME280;18669;53.356;-1.464;2023-05-11T03:27:30;100362.81;;;12.26;100.00
29839;BME280;18669;53.356;-1.464;2023-05-11T03:30:16;100369.97;;;12.22;100.00
29839;BME280;18669;53.356;-1.464;2023-05-11T03:33:03;100356.41;;;12.06;100.00
29839;BME280;18669;53.356;-1.464;2023-05-11T03:35:49;100369.97;;;12.22;100.00
29839;BME280;18669;53.356;-1.464;2023-05-11T03:38:35;100370.25;;;12.13;100.00
29839;BME280;18669;53.356;-1.464;2023-05-11T03:41:21;100366.78;;;12.12;100.00
29839;BME280;18669;53.356;-1.464;2023-05-11T03:44:07;100374.91;;;12.04;100.00
29839;BME280;18669;53.356;-1.464;2023-05-11T03:46:55;100375.72;;;12.06;100.00
29839;BME280;18669;53.356;-1.464;2023-05-11T03:49:41;100359.34;;;11.95;100.00
29839;BME280;18669;53.356;-1.464;2023-05-11T03:52:28;100373.28;;;11.99;100.00
29839;BME280;18669;53.356;-1.464;2023-05-11T03:55:13;100373.63;;;11.88;100.00
29839;BME280;18669;53.356;-1.464;2023-05-11T03:57:59;100377.19;;;11.87;100.00
29839;BME280;18669;53.356;-1.464;2023-05-11T04:00:44;100374.56;;;11.85;100.00
29839;BME280;18669;53.356;-1.464;2023-05-11T04:03:29;100384.25;;;11.85;100.00
29839;BME280;18669;53.356;-1.464;2023-05-11T04:06:15;100382.47;;;11.85;100.00
29839;BME280;18669;53.356;-1.464;2023-05-11T04:09:00;100386.91;;;11.85;100.00
29839;BME280;18669;53.356;-1.464;2023-05-11T04:11:45;100380.66;;;11.87;100.00
29839;BME280;18669;53.356;-1.464;2023-05-11T04:14:30;100390.28;;;11.88;100.00
29839;BME280;18669;53.356;-1.464;2023-05-11T04:17:15;100379.97;;;11.82;100.00
29839;BME280;18669;53.356;-1.464;2023-05-11T04:20:00;100364.34;;;11.74;100.00
29839;BME280;18669;53.356;-1.464;2023-05-11T04:22:45;100390.38;;;11.85;100.00
29839;BME280;18669;53.356;-1.464;2023-05-11T04:25:30;100389.53;;;11.85;100.00
29839;BME280;18669;53.356;-1.464;2023-05-11T04:28:14;100389.38;;;11.89;100.00
29839;BME280;18669;53.356;-1.464;2023-05-11T04:30:59;100393.75;;;11.90;100.00
29839;BME280;18669;53.356;-1.464;2023-05-11T04:33:44;100393.00;;;11.87;100.00
29839;BME280;18669;53.356;-1.464;2023-05-11T04:36:29;100398.19;;;11.88;100.00
29839;BME280;18669;53.356;-1.464;2023-05-11T04:39:15;100399.00;;;11.92;100.00
29839;BME280;18669;53.356;-1.464;2023-05-11T04:42:00;100395.47;;;11.91;100.00
29839;BME280;18669;53.356;-1.464;2023-05-11T04:44:45;100394.56;;;11.92;100.00
29839;BME280;18669;53.356;-1.464;2023-05-11T04:47:30;100397.94;;;11.99;100.00
29839;BME280;18669;53.356;-1.464;2023-05-11T04:50:14;100402.25;;;12.02;100.00
29839;BME280;18669;53.356;-1.464;2023-05-11T04:52:59;100405.69;;;12.04;100.00
29839;BME280;18669;53.356;-1.464;2023-05-11T04:55:44;100414.28;;;12.11;100.00
29839;BME280;18669;53.356;-1.464;2023-05-11T04:58:29;100401.78;;;12.17;100.00
29839;BME280;18669;53.356;-1.464;2023-05-11T05:01:14;100408.66;;;12.21;100.00
29839;BME280;18669;53.356;-1.464;2023-05-11T05:03:59;100410.25;;;12.27;100.00
29839;BME280;18669;53.356;-1.464;2023-05-11T05:06:44;100408.19;;;12.37;100.00
29839;BME280;18669;53.356;-1.464;2023-05-11T05:09:29;100406.41;;;12.37;100.00
29839;BME280;18669;53.356;-1.464;2023-05-11T05:12:14;100415.94;;;12.42;100.00
29839;BME280;18669;53.356;-1.464;2023-05-11T05:14:59;100408.13;;;12.38;100.00
29839;BME280;18669;53.356;-1.464;2023-05-11T05:17:44;100415.75;;;12.48;100.00
29839;BME280;18669;53.356;-1.464;2023-05-11T05:20:29;100423.50;;;12.54;100.00
29839;BME280;18669;53.356;-1.464;2023-05-11T05:23:14;100424.41;;;12.53;100.00
29839;BME280;18669;53.356;-1.464;2023-05-11T05:25:59;100423.38;;;12.57;100.00
29839;BME280;18669;53.356;-1.464;2023-05-11T05:28:43;100422.41;;;12.60;100.00
29839;BME280;18669;53.356;-1.464;2023-05-11T05:31:28;100426.88;;;12.58;100.00
29839;BME280;18669;53.356;-1.464;2023-05-11T05:34:13;100432.13;;;12.59;100.00
29839;BME280;18669;53.356;-1.464;2023-05-11T05:36:58;100424.13;;;12.61;100.00
29839;BME280;18669;53.356;-1.464;2023-05-11T05:39:43;100424.31;;;12.56;100.00
29839;BME280;18669;53.356;-1.464;2023-05-11T05:42:28;100440.84;;;12.61;100.00
29839;BME280;18669;53.356;-1.464;2023-05-11T05:45:13;100432.97;;;12.60;100.00
29839;BME280;18669;53.356;-1.464;2023-05-11T05:47:58;100429.41;;;12.61;100.00
29839;BME280;18669;53.356;-1.464;2023-05-11T05:50:45;100438.84;;;12.70;100.00
29839;BME280;18669;53.356;-1.464;2023-05-11T05:53:30;100445.88;;;12.69;100.00
29839;BME280;18669;53.356;-1.464;2023-05-11T05:56:15;100454.53;;;12.73;100.00
29839;BME280;18669;53.356;-1.464;2023-05-11T05:59:00;100452.72;;;12.75;100.00
29839;BME280;18669;53.356;-1.464;2023-05-11T06:01:45;100464.00;;;12.80;100.00
29839;BME280;18669;53.356;-1.464;2023-05-11T06:04:31;100451.13;;;12.71;100.00
29839;BME280;18669;53.356;-1.464;2023-05-11T06:07:16;100463.25;;;12.76;100.00
29839;BME280;18669;53.356;-1.464;2023-05-11T06:10:01;100460.41;;;12.82;100.00
29839;BME280;18669;53.356;-1.464;2023-05-11T06:12:46;100463.66;;;12.91;100.00
29839;BME280;18669;53.356;-1.464;2023-05-11T06:15:31;100469.50;;;13.01;100.00
29839;BME280;18669;53.356;-1.464;2023-05-11T06:18:16;100472.25;;;12.97;100.00
29839;BME280;18669;53.356;-1.464;2023-05-11T06:21:01;100459.25;;;12.91;100.00
29839;BME280;18669;53.356;-1.464;2023-05-11T06:23:46;100475.63;;;13.01;100.00
29839;BME280;18669;53.356;-1.464;2023-05-11T06:26:31;100475.59;;;13.03;100.00
29839;BME280;18669;53.356;-1.464;2023-05-11T06:29:16;100471.97;;;13.05;100.00
29839;BME280;18669;53.356;-1.464;2023-05-11T06:32:02;100465.69;;;13.09;100.00
29839;BME280;18669;53.356;-1.464;2023-05-11T06:34:47;100473.13;;;13.23;100.00
29839;BME280;18669;53.356;-1.464;2023-05-11T06:37:32;100477.19;;;13.34;100.00
29839;BME280;18669;53.356;-1.464;2023-05-11T06:40:17;100480.31;;;13.47;100.00
29839;BME280;18669;53.356;-1.464;2023-05-11T06:43:02;100482.53;;;13.59;100.00
29839;BME280;18669;53.356;-1.464;2023-05-11T06:45:47;100478.94;;;13.60;100.00
29839;BME280;18669;53.356;-1.464;2023-05-11T06:48:32;100489.25;;;13.68;100.00
29839;BME280;18669;53.356;-1.464;2023-05-11T06:51:17;100489.78;;;13.78;100.00
29839;BME280;18669;53.356;-1.464;2023-05-11T06:54:02;100488.56;;;13.86;100.00
29839;BME280;18669;53.356;-1.464;2023-05-11T06:56:47;100481.22;;;13.95;100.00
29839;BME280;18669;53.356;-1.464;2023-05-11T06:59:32;100488.94;;;14.01;100.00
29839;BME280;18669;53.356;-1.464;2023-05-11T07:02:16;100479.06;;;14.06;100.00
29839;BME280;18669;53.356;-1.464;2023-05-11T07:05:02;100485.66;;;14.18;100.00
29839;BME280;18669;53.356;-1.464;2023-05-11T07:07:46;100485.44;;;14.24;100.00
29839;BME280;18669;53.356;-1.464;2023-05-11T07:10:31;100490.41;;;14.32;100.00
29839;BME280;18669;53.356;-1.464;2023-05-11T07:13:16;100487.47;;;14.40;100.00
29839;BME280;18669;53.356;-1.464;2023-05-11T07:16:01;100491.84;;;14.41;100.00
29839;BME280;18669;53.356;-1.464;2023-05-11T07:18:46;100494.38;;;14.44;100.00
29839;BME280;18669;53.356;-1.464;2023-05-11T07:21:31;100489.94;;;14.44;100.00
29839;BME280;18669;53.356;-1.464;2023-05-11T07:24:16;100490.75;;;14.46;100.00
29839;BME280;18669;53.356;-1.464;2023-05-11T07:27:01;100490.69;;;14.48;100.00
29839;BME280;18669;53.356;-1.464;2023-05-11T07:29:45;100492.22;;;14.54;100.00
29839;BME280;18669;53.356;-1.464;2023-05-11T07:32:31;100493.38;;;14.70;100.00
29839;BME280;18669;53.356;-1.464;2023-05-11T07:35:16;100487.72;;;14.80;100.00
29839;BME280;18669;53.356;-1.464;2023-05-11T07:38:01;100490.88;;;14.88;100.00
29839;BME280;18669;53.356;-1.464;2023-05-11T07:40:46;100496.06;;;14.91;100.00
29839;BME280;18669;53.356;-1.464;2023-05-11T07:43:31;100501.44;;;14.89;100.00
29839;BME280;18669;53.356;-1.464;2023-05-11T07:46:16;100498.72;;;14.91;100.00
29839;BME280;18669;53.356;-1.464;2023-05-11T07:49:01;100504.78;;;14.95;100.00
29839;BME280;18669;53.356;-1.464;2023-05-11T07:51:45;100500.63;;;15.10;100.00
29839;BME280;18669;53.356;-1.464;2023-05-11T07:54:30;100492.94;;;15.24;100.00
29839;BME280;18669;53.356;-1.464;2023-05-11T07:57:15;100501.91;;;15.42;100.00
29839;BME280;18669;53.356;-1.464;2023-05-11T08:00:00;100495.34;;;15.51;100.00
29839;BME280;18669;53.356;-1.464;2023-05-11T08:02:45;100504.03;;;15.55;100.00
29839;BME280;18669;53.356;-1.464;2023-05-11T08:05:30;100504.28;;;15.48;100.00
29839;BME280;18669;53.356;-1.464;2023-05-11T08:08:19;100515.22;;;15.61;100.00
29839;BME280;18669;53.356;-1.464;2023-05-11T08:11:04;100507.00;;;15.68;100.00
29839;BME280;18669;53.356;-1.464;2023-05-11T08:13:49;100503.41;;;15.69;100.00
29839;BME280;18669;53.356;-1.464;2023-05-11T08:16:34;100511.63;;;15.83;100.00
29839;BME280;18669;53.356;-1.464;2023-05-11T08:19:20;100513.97;;;15.91;100.00
29839;BME280;18669;53.356;-1.464;2023-05-11T08:22:05;100514.13;;;16.07;100.00
29839;BME280;18669;53.356;-1.464;2023-05-11T08:24:50;100519.16;;;16.13;100.00
29839;BME280;18669;53.356;-1.464;2023-05-11T08:27:35;100519.22;;;16.11;100.00
29839;BME280;18669;53.356;-1.464;2023-05-11T08:30:20;100504.84;;;16.17;100.00
29839;BME280;18669;53.356;-1.464;2023-05-11T08:33:05;100520.41;;;16.44;100.00
29839;BME280;18669;53.356;-1.464;2023-05-11T08:35:51;100519.31;;;16.48;100.00
29839;BME280;18669;53.356;-1.464;2023-05-11T08:38:36;100522.34;;;16.40;100.00
29839;BME280;18669;53.356;-1.464;2023-05-11T08:41:21;100523.47;;;16.73;100.00
29839;BME280;18669;53.356;-1.464;2023-05-11T08:44:06;100520.63;;;16.95;100.00
29839;BME280;18669;53.356;-1.464;2023-05-11T08:46:52;100523.16;;;17.16;100.00
29839;BME280;18669;53.356;-1.464;2023-05-11T08:49:37;100515.19;;;17.16;100.00
29839;BME280;18669;53.356;-1.464;2023-05-11T08:52:24;100510.81;;;17.15;100.00
29839;BME280;18669;53.356;-1.464;2023-05-11T08:55:11;100515.91;;;17.37;100.00
29839;BME280;18669;53.356;-1.464;2023-05-11T08:57:57;100516.47;;;17.62;100.00
29839;BME280;18669;53.356;-1.464;2023-05-11T09:00:44;100525.69;;;17.72;100.00
29839;BME280;18669;53.356;-1.464;2023-05-11T09:03:33;100521.06;;;17.75;100.00
29839;BME280;18669;53.356;-1.464;2023-05-11T09:06:19;100522.31;;;17.68;100.00
29839;BME280;18669;53.356;-1.464;2023-05-11T09:09:04;100521.88;;;17.42;100.00
29839;BME280;18669;53.356;-1.464;2023-05-11T09:11:49;100516.94;;;17.35;100.00
29839;BME280;18669;53.356;-1.464;2023-05-11T09:14:34;100530.47;;;17.30;100.00
29839;BME280;18669;53.356;-1.464;2023-05-11T09:17:19;100519.44;;;17.38;100.00
29839;BME280;18669;53.356;-1.464;2023-05-11T09:20:05;100525.94;;;17.50;100.00
29839;BME280;18669;53.356;-1.464;2023-05-11T09:22:51;100523.81;;;17.56;100.00
29839;BME280;18669;53.356;-1.464;2023-05-11T09:25:36;100528.13;;;17.59;100.00
29839;BME280;18669;53.356;-1.464;2023-05-11T09:28:24;100531.16;;;17.69;100.00
29839;BME280;18669;53.356;-1.464;2023-05-11T09:31:08;100534.13;;;17.27;100.00
29839;BME280;18669;53.356;-1.464;2023-05-11T09:36:57;100532.75;;;16.45;100.00
29839;BME280;18669;53.356;-1.464;2023-05-11T09:39:42;100540.91;;;16.02;100.00
29839;BME280;18669;53.356;-1.464;2023-05-11T09:42:28;100543.53;;;15.81;100.00
29839;BME280;18669;53.356;-1.464;2023-05-11T09:45:13;100552.75;;;15.52;100.00
29839;BME280;18669;53.356;-1.464;2023-05-11T09:47:58;100549.94;;;15.34;100.00
29839;BME280;18669;53.356;-1.464;2023-05-11T09:50:44;100542.25;;;15.28;100.00
29839;BME280;18669;53.356;-1.464;2023-05-11T09:53:42;100551.91;;;15.29;100.00
29839;BME280;18669;53.356;-1.464;2023-05-11T09:56:43;100551.69;;;15.13;100.00
29839;BME280;18669;53.356;-1.464;2023-05-11T09:59:41;100549.13;;;15.12;100.00
29839;BME280;18669;53.356;-1.464;2023-05-11T10:02:30;100561.50;;;14.89;100.00
29839;BME280;18669;53.356;-1.464;2023-05-11T10:05:15;100548.50;;;14.59;100.00
29839;BME280;18669;53.356;-1.464;2023-05-11T10:08:04;100565.59;;;14.74;100.00
29839;BME280;18669;53.356;-1.464;2023-05-11T10:10:49;100571.97;;;14.68;100.00
29839;BME280;18669;53.356;-1.464;2023-05-11T10:13:35;100573.56;;;14.74;100.00
29839;BME280;18669;53.356;-1.464;2023-05-11T10:16:23;100570.31;;;14.66;100.00
29839;BME280;18669;53.356;-1.464;2023-05-11T10:19:09;100573.22;;;14.59;100.00
29839;BME280;18669;53.356;-1.464;2023-05-11T10:21:55;100558.78;;;14.44;100.00
29839;BME280;18669;53.356;-1.464;2023-05-11T10:24:40;100579.94;;;14.44;100.00
29839;BME280;18669;53.356;-1.464;2023-05-11T10:27:26;100580.00;;;14.43;100.00
29839;BME280;18669;53.356;-1.464;2023-05-11T10:30:12;100577.56;;;14.37;100.00
29839;BME280;18669;53.356;-1.464;2023-05-11T10:32:57;100586.16;;;14.43;100.00
29839;BME280;18669;53.356;-1.464;2023-05-11T10:35:44;100586.06;;;14.46;100.00
29839;BME280;18669;53.356;-1.464;2023-05-11T10:38:29;100600.44;;;14.14;100.00
29839;BME280;18669;53.356;-1.464;2023-05-11T11:00:08;100614.44;;;13.67;100.00
29839;BME280;18669;53.356;-1.464;2023-05-11T11:02:57;100615.34;;;13.66;100.00
29839;BME280;18669;53.356;-1.464;2023-05-11T11:05:42;100611.72;;;13.68;100.00
29839;BME280;18669;53.356;-1.464;2023-05-11T11:08:58;100614.75;;;13.83;100.00
29839;BME280;18669;53.356;-1.464;2023-05-11T11:11:45;100610.88;;;13.68;100.00
29839;BME280;18669;53.356;-1.464;2023-05-11T11:15:00;100606.38;;;13.70;100.00
29839;BME280;18669;53.356;-1.464;2023-05-11T11:17:47;100595.91;;;13.40;100.00
29839;BME280;18669;53.356;-1.464;2023-05-11T11:20:46;100607.69;;;13.58;100.00
29839;BME280;18669;53.356;-1.464;2023-05-11T11:26:46;100611.00;;;13.63;100.00
29839;BME280;18669;53.356;-1.464;2023-05-11T11:29:33;100607.81;;;13.53;100.00
29839;BME280;18669;53.356;-1.464;2023-05-11T11:38:29;100606.53;;;13.65;100.00
29839;BME280;18669;53.356;-1.464;2023-05-11T11:41:27;100598.19;;;13.78;100.00
29839;BME280;18669;53.356;-1.464;2023-05-11T11:44:21;100594.34;;;13.86;100.00
29839;BME280;18669;53.356;-1.464;2023-05-11T11:47:13;100595.59;;;14.01;100.00
29839;BME280;18669;53.356;-1.464;2023-05-11T11:50:09;100589.25;;;14.31;100.00
29839;BME280;18669;53.356;-1.464;2023-05-11T11:52:55;100590.34;;;14.49;100.00
29839;BME280;18669;53.356;-1.464;2023-05-11T11:55:45;100596.00;;;15.10;100.00
29839;BME280;18669;53.356;-1.464;2023-05-11T12:01:29;100588.56;;;16.04;100.00
29839;BME280;18669;53.356;-1.464;2023-05-11T12:04:49;100586.41;;;16.52;100.00
29839;BME280;18669;53.356;-1.464;2023-05-11T12:07:42;100581.66;;;17.16;100.00
29839;BME280;18669;53.356;-1.464;2023-05-11T12:10:27;100597.56;;;17.35;100.00
29839;BME280;18669;53.356;-1.464;2023-05-11T12:13:12;100584.91;;;18.11;100.00
29839;BME280;18669;53.356;-1.464;2023-05-11T12:16:16;100590.88;;;18.82;100.00
29839;BME280;18669;53.356;-1.464;2023-05-11T12:19:02;100591.97;;;18.77;100.00
29839;BME280;18669;53.356;-1.464;2023-05-11T12:21:47;100597.78;;;18.52;100.00
29839;BME280;18669;53.356;-1.464;2023-05-11T12:24:32;100597.91;;;18.51;100.00
29839;BME280;18669;53.356;-1.464;2023-05-11T12:27:17;100601.69;;;18.62;100.00
29839;BME280;18669;53.356;-1.464;2023-05-11T12:30:04;100600.19;;;18.57;100.00
29839;BME280;18669;53.356;-1.464;2023-05-11T12:32:50;100605.81;;;18.84;100.00
29839;BME280;18669;53.356;-1.464;2023-05-11T12:35:36;100603.69;;;19.23;100.00
29839;BME280;18669;53.356;-1.464;2023-05-11T12:38:22;100593.66;;;20.18;100.00
29839;BME280;18669;53.356;-1.464;2023-05-11T12:41:08;100593.28;;;21.10;88.62
29839;BME280;18669;53.356;-1.464;2023-05-11T12:43:53;100600.94;;;21.01;86.38
29839;BME280;18669;53.356;-1.464;2023-05-11T12:46:39;100608.56;;;21.35;83.77
29839;BME280;18669;53.356;-1.464;2023-05-11T12:49:24;100613.41;;;20.45;83.23
29839;BME280;18669;53.356;-1.464;2023-05-11T12:52:12;100611.66;;;20.00;88.11
29839;BME280;18669;53.356;-1.464;2023-05-11T12:54:57;100618.41;;;19.61;96.54
29839;BME280;18669;53.356;-1.464;2023-05-11T12:57:45;100611.16;;;19.16;81.59
29839;BME280;18669;53.356;-1.464;2023-05-11T13:00:30;100594.13;;;18.87;100.00
29839;BME280;18669;53.356;-1.464;2023-05-11T13:03:20;100614.38;;;19.07;95.90
29839;BME280;18669;53.356;-1.464;2023-05-11T13:06:07;100604.84;;;19.33;99.59
29839;BME280;18669;53.356;-1.464;2023-05-11T13:08:52;100609.41;;;19.78;87.80
29839;BME280;18669;53.356;-1.464;2023-05-11T13:11:37;100599.91;;;19.58;77.51
29839;BME280;18669;53.356;-1.464;2023-05-11T13:14:22;100603.94;;;19.79;85.29
29839;BME280;18669;53.356;-1.464;2023-05-11T13:17:07;100603.56;;;19.71;90.20
29839;BME280;18669;53.356;-1.464;2023-05-11T13:19:51;100612.34;;;19.43;83.42
29839;BME280;18669;53.356;-1.464;2023-05-11T13:22:36;100607.47;;;19.96;82.88
29839;BME280;18669;53.356;-1.464;2023-05-11T13:25:21;100607.00;;;20.91;78.07
29839;BME280;18669;53.356;-1.464;2023-05-11T13:28:06;100585.34;;;21.89;64.67
29839;BME280;18669;53.356;-1.464;2023-05-11T13:30:58;100608.09;;;23.22;54.38
29839;BME280;18669;53.356;-1.464;2023-05-11T13:33:51;100599.50;;;24.70;50.52
29839;BME280;18669;53.356;-1.464;2023-05-11T13:36:36;100594.34;;;24.44;50.47
29839;BME280;18669;53.356;-1.464;2023-05-11T13:39:21;100594.81;;;24.95;48.34
29839;BME280;18669;53.356;-1.464;2023-05-11T13:42:06;100603.91;;;25.59;48.08
29839;BME280;18669;53.356;-1.464;2023-05-11T13:44:50;100602.72;;;25.94;45.26
29839;BME280;18669;53.356;-1.464;2023-05-11T13:47:35;100597.22;;;26.48;42.36
29839;BME280;18669;53.356;-1.464;2023-05-11T13:50:21;100599.06;;;27.77;43.32
29839;BME280;18669;53.356;-1.464;2023-05-11T13:53:06;100602.59;;;28.07;40.08
29839;BME280;18669;53.356;-1.464;2023-05-11T13:55:51;100602.88;;;28.13;39.38
29839;BME280;18669;53.356;-1.464;2023-05-11T13:58:36;100608.88;;;27.38;41.17
29839;BME280;18669;53.356;-1.464;2023-05-11T14:01:21;100592.91;;;28.04;40.99
29839;BME280;18669;53.356;-1.464;2023-05-11T14:04:05;100616.81;;;27.10;41.79
29839;BME280;18669;53.356;-1.464;2023-05-11T14:06:50;100620.16;;;26.42;41.87
29839;BME280;18669;53.356;-1.464;2023-05-11T14:09:35;100625.16;;;24.85;44.48
29839;BME280;18669;53.356;-1.464;2023-05-11T14:12:20;100630.25;;;23.13;45.55
29839;BME280;18669;53.356;-1.464;2023-05-11T14:15:06;100629.72;;;22.19;48.60
29839;BME280;18669;53.356;-1.464;2023-05-11T14:17:50;100641.78;;;21.18;53.28
29839;BME280;18669;53.356;-1.464;2023-05-11T14:20:36;100649.38;;;20.39;62.02
29839;BME280;18669;53.356;-1.464;2023-05-11T14:23:27;100649.53;;;19.76;60.22
29839;BME280;18669;53.356;-1.464;2023-05-11T14:26:12;100647.34;;;19.52;65.82
29839;BME280;18669;53.356;-1.464;2023-05-11T14:28:57;100650.75;;;19.24;74.91
29839;BME280;18669;53.356;-1.464;2023-05-11T14:31:42;100658.38;;;19.14;79.33
29839;BME280;18669;53.356;-1.464;2023-05-11T14:34:27;100661.06;;;18.98;78.39
29839;BME280;18669;53.356;-1.464;2023-05-11T14:37:12;100649.75;;;18.93;81.34
29839;BME280;18669;53.356;-1.464;2023-05-11T14:39:57;100649.75;;;18.77;80.04
29839;BME280;18669;53.356;-1.464;2023-05-11T14:42:42;100647.13;;;18.43;76.85
29839;BME280;18669;53.356;-1.464;2023-05-11T14:45:27;100659.72;;;18.40;82.77